Time;durP1;ratioP1;P1;durP2;ratioP2;P2;SDS_P1;SDS_P2;PMS_P1;PMS_P2;Temp;Humidity;BMP_temperature;BMP_pressure;BME280_temperature;BME280_humidity;BME280_pressure;Samples;Min_cycle;Max_cycle;Signal;HPM_P1;HPM_P2
2022/06/07 00:00:49;;;;;;;4.23;3.93;;;16.70;76.10;;;15.88;70.10;97849.81;4982536;28;20463;-70
2022/06/07 00:03:17;;;;;;;4.00;3.70;;;16.70;76.20;;;15.78;70.65;97840.41;4979742;28;20997;-70
2022/06/07 00:05:45;;;;;;;4.50;4.10;;;16.60;76.50;;;15.76;71.08;97850.75;4980561;28;20644;-71
2022/06/07 00:08:15;;;;;;;4.23;3.83;;;16.60;77.10;;;15.69;71.42;97842.78;4980077;28;20464;-71
2022/06/07 00:10:43;;;;;;;4.80;4.50;;;16.60;77.40;;;15.86;71.31;97859.06;4984646;28;20471;-70
2022/06/07 00:13:12;;;;;;;4.50;4.20;;;16.70;77.70;;;16.20;70.06;97862.72;4985485;28;20452;-71
2022/06/07 00:15:39;;;;;;;4.93;4.63;;;16.90;77.30;;;16.14;69.80;97853.66;4984568;28;21028;-71
2022/06/07 00:18:08;;;;;;;4.57;4.17;;;16.90;77.00;;;16.04;69.91;97854.38;4983871;28;20470;-70
2022/06/07 00:20:36;;;;;;;4.50;3.87;;;16.90;76.90;;;15.99;70.08;97851.59;4986953;28;20448;-71
2022/06/07 00:23:06;;;;;;;4.67;4.27;;;16.80;77.20;;;15.98;70.05;97855.38;4984534;28;20492;-71
2022/06/07 00:25:33;;;;;;;5.10;4.23;;;16.80;77.00;;;15.99;69.72;97852.41;4984360;28;20658;-71
2022/06/07 00:28:01;;;;;;;4.53;3.97;;;16.90;77.10;;;16.19;69.89;97861.09;4990880;28;20500;-70
2022/06/07 00:30:31;;;;;;;4.60;4.00;;;16.90;77.30;;;16.19;69.42;97852.91;4995955;28;20460;-71
2022/06/07 00:32:59;;;;;;;4.87;4.43;;;17.00;77.00;;;16.09;69.51;97848.97;4990041;28;21308;-70
2022/06/07 00:35:26;;;;;;;4.57;4.13;;;16.90;76.80;;;16.31;68.92;97842.69;4979498;28;20455;-70
2022/06/07 00:37:54;;;;;;;4.20;3.90;;;17.10;76.80;;;16.23;68.96;97833.06;4985704;28;20461;-69
2022/06/07 00:40:21;;;;;;;5.87;3.70;;;17.10;76.60;;;16.38;68.06;97826.94;4979528;28;20456;-70
2022/06/07 00:42:49;;;;;;;7.13;4.17;;;17.20;76.30;;;16.26;68.67;97821.66;4977245;28;20483;-69
2022/06/07 00:45:19;;;;;;;4.80;3.73;;;17.10;76.20;;;16.28;69.13;97824.09;4980640;28;20463;-69
2022/06/07 00:47:48;;;;;;;4.83;3.87;;;17.10;76.70;;;16.17;68.83;97830.53;4983285;28;20468;-69
2022/06/07 00:50:29;;;;;;;5.90;4.10;;;17.10;76.50;;;16.34;68.40;97841.31;4998850;28;20542;-69
2022/06/07 00:52:59;;;;;;;4.27;3.97;;;17.10;76.50;;;16.21;69.13;97828.94;4992808;28;20521;-69
2022/06/07 00:55:27;;;;;;;4.53;4.10;;;17.10;76.50;;;16.25;68.67;97824.63;4976362;28;20505;-70
2022/06/07 00:57:54;;;;;;;4.17;3.87;;;17.10;76.50;;;16.21;68.95;97837.13;4978168;28;20467;-68
2022/06/07 01:00:25;;;;;;;4.10;3.70;;;17.10;76.70;;;16.01;69.66;97822.22;4974901;28;20456;-70
2022/06/07 01:02:55;;;;;;;5.07;3.90;;;17.00;76.80;;;16.14;69.77;97827.22;4985656;28;21254;-69
2022/06/07 01:05:22;;;;;;;4.60;4.30;;;17.00;77.10;;;16.10;69.48;97831.56;5020154;27;20448;-69
2022/06/07 01:10:46;;;;;;;4.50;4.20;;;17.00;76.90;;;16.19;69.58;97829.19;4972349;28;20559;-70
2022/06/07 01:13:17;;;;;;;4.77;4.00;;;17.00;77.10;;;16.07;69.81;97833.97;5007480;28;20558;-69
2022/06/07 01:15:45;;;;;;;4.90;4.00;;;17.00;77.10;;;16.20;69.51;97835.47;4980133;28;20463;-69
2022/06/07 01:18:16;;;;;;;4.57;4.27;;;17.00;77.20;;;16.26;69.14;97839.88;4976718;28;20549;-69
2022/06/07 01:20:43;;;;;;;4.10;3.80;;;17.00;77.10;;;16.34;69.18;97839.44;4990703;28;20476;-68
2022/06/07 01:23:11;;;;;;;4.43;3.70;;;17.10;77.00;;;16.27;69.29;97842.38;5071461;28;20477;-69
2022/06/07 01:25:40;;;;;;;4.40;4.00;;;17.10;77.30;;;16.23;69.52;97848.59;5015136;28;20530;-69
2022/06/07 01:28:07;;;;;;;4.17;3.87;;;17.10;77.30;;;16.24;69.66;97844.78;4986010;28;20560;-70
2022/06/07 01:30:35;;;;;;;4.37;4.07;;;17.10;77.50;;;16.16;70.27;97856.16;4976435;28;20473;-69
2022/06/07 01:33:02;;;;;;;4.53;4.10;;;17.10;77.50;;;16.26;69.82;97854.34;4980933;28;20537;-70
2022/06/07 01:35:29;;;;;;;4.90;4.50;;;17.10;77.60;;;16.37;69.38;97855.28;4977764;28;20452;-70
2022/06/07 01:37:56;;;;;;;4.93;4.53;;;17.20;77.70;;;16.28;69.52;97854.06;5010547;28;20463;-71
2022/06/07 01:43:22;;;;;;;4.43;4.00;;;17.20;77.30;;;16.35;69.36;97843.81;4930173;28;20486;-70
2022/06/07 01:45:49;;;;;;;4.80;4.50;;;17.20;77.30;;;16.28;69.80;97851.34;4968477;28;20470;-70
2022/06/07 01:48:16;;;;;;;3.97;3.67;;;17.20;77.30;;;16.31;69.51;97848.13;5009855;28;20480;-70
2022/06/07 01:50:44;;;;;;;4.20;3.80;;;17.20;77.40;;;16.25;69.53;97849.16;4996339;28;20473;-70
2022/06/07 01:53:11;;;;;;;4.50;4.10;;;17.10;77.50;;;16.39;68.86;97847.66;4978138;28;20475;-70
2022/06/07 01:55:40;;;;;;;4.03;3.60;;;17.20;77.30;;;16.40;68.79;97838.41;4977786;28;20468;-70
2022/06/07 01:58:07;;;;;;;4.37;3.97;;;17.20;77.10;;;16.35;69.09;97843.81;4978125;28;20460;-70
2022/06/07 02:00:35;;;;;;;4.40;4.13;;;17.20;77.50;;;16.19;69.46;97839.28;4981721;28;20530;-70
2022/06/07 02:03:02;;;;;;;3.77;3.47;;;17.10;77.20;;;16.31;69.06;97839.97;5019651;28;20471;-70
2022/06/07 02:05:29;;;;;;;4.37;4.07;;;17.10;77.10;;;16.30;68.55;97835.56;4993964;28;20969;-70
2022/06/07 02:07:58;;;;;;;3.77;3.47;;;17.10;77.20;;;16.29;69.34;97839.38;4987953;28;20496;-70
2022/06/07 02:10:25;;;;;;;5.27;3.70;;;17.10;77.20;;;16.22;69.63;97839.56;4990583;28;20927;-70
2022/06/07 02:12:54;;;;;;;4.60;4.17;;;17.10;77.80;;;16.20;69.46;97843.66;4983590;28;20461;-70
2022/06/07 02:15:21;;;;;;;4.10;3.80;;;17.00;77.50;;;16.25;69.94;97849.16;5004353;28;20474;-70
2022/06/07 02:17:48;;;;;;;3.97;3.67;;;17.10;77.70;;;16.22;68.98;97838.75;4992270;28;20456;-70
2022/06/07 02:20:15;;;;;;;3.87;3.57;;;17.10;77.40;;;16.08;69.27;97839.16;4986871;28;20464;-70
2022/06/07 02:22:43;;;;;;;4.00;3.80;;;17.00;77.40;;;16.17;69.57;97836.00;4981575;28;20543;-70
2022/06/07 02:25:10;;;;;;;4.30;4.00;;;17.00;77.60;;;16.12;69.81;97825.84;4987714;28;20475;-70
2022/06/07 02:27:38;;;;;;;4.27;3.87;;;17.00;77.60;;;16.10;69.83;97831.56;4984044;28;20495;-70
2022/06/07 02:30:11;;;;;;;4.30;3.83;;;17.00;77.50;;;16.15;69.46;97828.06;4989818;28;20469;-70
2022/06/07 02:32:40;;;;;;;4.10;3.80;;;17.00;77.60;;;16.25;69.44;97827.34;5038193;28;20451;-70
2022/06/07 02:35:08;;;;;;;4.43;4.07;;;17.00;77.60;;;16.21;69.79;97826.22;4986382;28;20454;-70
2022/06/07 02:37:38;;;;;;;3.97;3.67;;;17.00;77.80;;;16.16;69.28;97812.53;4979865;28;20464;-70
2022/06/07 02:40:07;;;;;;;4.03;3.47;;;17.00;77.40;;;16.18;69.47;97821.28;5017701;28;20466;-70
2022/06/07 02:42:35;;;;;;;4.57;4.23;;;17.00;77.20;;;16.17;69.09;97819.66;5005156;28;20483;-70
2022/06/07 02:45:03;;;;;;;3.60;3.00;;;17.00;77.60;;;16.31;68.49;97820.88;5051449;28;20451;-70
2022/06/07 02:47:32;;;;;;;4.90;3.73;;;17.10;77.10;;;16.16;68.35;97793.47;4986239;28;20458;-70
2022/06/07 02:49:59;;;;;;;7.57;4.07;;;17.10;77.00;;;16.18;68.94;97811.19;4986055;28;20538;-70
2022/06/07 02:52:26;;;;;;;3.67;3.37;;;17.10;77.20;;;16.13;69.21;97806.50;4982438;28;20455;-70
2022/06/07 02:54:53;;;;;;;3.97;3.67;;;17.00;77.10;;;16.31;68.52;97815.44;4983613;28;20946;-70
2022/06/07 02:57:21;;;;;;;3.87;3.57;;;17.10;77.10;;;16.31;67.97;97815.44;4987056;28;20547;-70
2022/06/07 02:59:48;;;;;;;4.50;3.67;;;17.10;76.70;;;16.26;68.93;97815.34;4987162;28;20524;-70
2022/06/07 03:02:16;;;;;;;3.83;3.60;;;17.10;76.90;;;16.05;69.36;97820.59;4998640;28;20969;-69
2022/06/07 03:04:45;;;;;;;4.10;3.80;;;17.00;76.90;;;15.98;69.55;97831.69;4992965;28;20467;-70
2022/06/07 03:07:12;;;;;;;6.10;3.50;;;17.00;77.10;;;15.98;69.74;97822.69;4985920;28;20456;-70
2022/06/07 03:09:39;;;;;;;5.70;3.73;;;16.90;77.40;;;16.02;69.28;97832.03;4983733;28;20463;-70
2022/06/07 03:12:08;;;;;;;4.00;3.70;;;16.90;77.20;;;16.18;69.08;97832.19;4984210;28;20459;-70
2022/06/07 03:14:35;;;;;;;4.40;3.70;;;16.90;77.40;;;16.03;69.25;97833.66;4987335;28;20465;-71
2022/06/07 03:17:04;;;;;;;3.63;3.10;;;16.90;77.10;;;16.10;69.37;97828.81;4986116;28;20464;-70
2022/06/07 03:19:32;;;;;;;5.90;3.50;;;16.90;77.60;;;16.09;69.23;97829.09;5020783;28;20750;-70
2022/06/07 03:22:00;;;;;;;3.30;3.10;;;16.90;77.30;;;15.97;69.65;97821.03;4986147;28;20479;-70
2022/06/07 03:24:27;;;;;;;3.80;3.50;;;16.90;77.70;;;15.93;70.34;97839.00;4979593;28;20480;-70
2022/06/07 03:26:55;;;;;;;5.97;3.43;;;16.80;77.70;;;16.06;69.55;97835.88;4982392;28;20958;-70
2022/06/07 03:29:24;;;;;;;4.27;3.97;;;16.80;77.60;;;15.97;69.13;97834.66;4986513;28;20460;-70
2022/06/07 03:31:51;;;;;;;4.47;3.40;;;16.80;77.20;;;15.99;69.61;97833.34;5017254;27;20527;-70
2022/06/07 03:34:20;;;;;;;3.67;3.33;;;16.80;77.70;;;16.00;69.79;97826.00;4985847;28;21027;-70
2022/06/07 03:36:47;;;;;;;4.50;3.43;;;16.80;77.70;;;15.98;69.46;97822.69;4986603;28;21029;-70
2022/06/07 03:39:15;;;;;;;3.37;3.07;;;16.90;77.50;;;15.92;69.73;97826.44;5000002;28;20487;-70
2022/06/07 03:41:43;;;;;;;3.40;3.20;;;16.80;77.40;;;15.80;70.13;97824.66;5021295;28;20954;-71
2022/06/07 03:44:10;;;;;;;3.90;3.60;;;16.70;77.50;;;15.80;70.63;97821.91;4986825;28;20552;-71
2022/06/07 03:46:38;;;;;;;3.97;3.37;;;16.70;77.90;;;16.06;69.29;97824.97;4984727;28;20458;-70
2022/06/07 03:49:05;;;;;;;3.60;3.30;;;16.80;77.70;;;15.96;68.82;97819.41;4986554;28;20471;-70
2022/06/07 03:51:33;;;;;;;3.90;3.60;;;16.80;77.20;;;16.04;68.49;97818.97;4981337;28;20464;-71
2022/06/07 03:54:01;;;;;;;3.77;3.47;;;16.80;77.10;;;15.99;69.26;97827.06;4993667;28;20460;-70
2022/06/07 03:56:29;;;;;;;4.67;3.57;;;16.80;77.30;;;15.98;68.97;97825.41;4999884;28;20455;-70
2022/06/07 03:58:57;;;;;;;3.87;3.57;;;16.80;77.00;;;16.02;68.48;97818.41;4986408;28;21083;-70
2022/06/07 04:01:27;;;;;;;4.37;4.07;;;16.80;76.90;;;15.94;69.14;97822.41;4979716;28;20455;-70
2022/06/07 04:04:01;;;;;;;4.37;3.87;;;16.80;77.10;;;16.02;68.29;97831.19;4987373;28;20475;-71
2022/06/07 04:06:33;;;;;;;3.23;3.03;;;16.90;76.90;;;16.17;68.39;97827.81;4983323;28;20993;-70
2022/06/07 04:09:01;;;;;;;3.73;3.53;;;17.00;77.00;;;16.13;68.48;97835.69;4986746;28;20457;-70
2022/06/07 04:11:30;;;;;;;3.60;3.23;;;16.90;76.80;;;15.98;70.18;97833.59;4986317;28;20452;-70
2022/06/07 04:13:59;;;;;;;5.20;3.63;;;16.90;77.80;;;15.92;70.36;97840.91;4984931;28;20458;-71
2022/06/07 04:16:30;;;;;;;4.73;3.20;;;16.80;78.00;;;15.92;69.76;97832.75;4987275;28;20458;-70
2022/06/07 04:18:58;;;;;;;4.57;4.17;;;16.80;77.60;;;15.90;70.09;97831.34;4979317;28;20477;-70
2022/06/07 04:21:25;;;;;;;4.13;3.83;;;16.80;77.80;;;15.89;71.13;97832.38;4992608;28;20474;-70
2022/06/07 04:23:54;;;;;;;5.57;4.00;;;16.80;78.80;;;15.96;70.74;97835.75;4981064;28;20484;-70
2022/06/07 04:26:24;;;;;;;5.00;3.80;;;16.80;78.70;;;15.94;70.17;97832.47;4981814;28;20834;-70
2022/06/07 04:28:53;;;;;;;9.23;4.17;;;16.80;78.30;;;15.93;69.99;97841.72;4980291;28;20474;-69
2022/06/07 04:31:23;;;;;;;3.80;3.33;;;16.80;78.10;;;16.18;68.68;97834.91;4985995;28;20467;-69
2022/06/07 04:33:55;;;;;;;3.77;3.47;;;17.00;77.80;;;16.17;68.91;97836.00;5011560;28;20490;-70
2022/06/07 04:36:25;;;;;;;4.03;3.50;;;17.00;77.40;;;16.21;68.55;97832.47;4993638;28;20467;-70
2022/06/07 04:38:56;;;;;;;4.80;3.47;;;17.00;77.10;;;16.34;68.01;97828.53;4984914;28;20504;-81
2022/06/07 04:41:25;;;;;;;4.70;3.00;;;17.10;77.20;;;16.45;67.98;97834.06;4982927;28;20471;-78
2022/06/07 04:43:56;;;;;;;6.13;5.57;;;17.20;77.00;;;16.84;66.74;97828.41;4988652;28;21036;-77
2022/06/07 04:46:25;;;;;;;8.47;6.30;;;17.60;76.90;;;17.00;66.17;97837.56;4991706;28;20459;-80
2022/06/07 04:48:52;;;;;;;4.03;3.73;;;17.80;76.20;;;17.22;66.11;97834.72;5013606;28;20464;-77
2022/06/07 04:51:24;;;;;;;12.23;3.93;;;17.90;75.90;;;17.87;66.70;97824.66;4982536;28;20451;-76
2022/06/07 04:53:52;;;;;;;3.03;2.83;;;18.40;77.50;;;17.33;63.76;97845.69;4987931;28;20459;-77
2022/06/07 04:56:23;;;;;;;6.63;3.47;;;18.30;73.90;;;17.25;63.15;97849.72;4986212;28;20489;-77
2022/06/07 04:58:53;;;;;;;3.83;3.57;;;18.20;73.50;;;16.89;64.63;97838.53;4990515;28;20455;-76
2022/06/07 05:01:25;;;;;;;5.80;3.60;;;17.90;73.70;;;17.17;65.72;97852.97;4992101;28;20456;-75
2022/06/07 05:03:54;;;;;;;2.90;2.70;;;18.00;76.10;;;16.83;64.51;97848.59;4984006;28;20485;-76
2022/06/07 05:06:23;;;;;;;4.10;3.77;;;17.90;73.50;;;16.87;64.14;97846.16;4981904;28;20463;-75
2022/06/07 05:08:51;;;;;;;4.67;3.63;;;17.80;73.20;;;16.69;64.99;97842.75;5003451;28;20827;-76
2022/06/07 05:11:19;;;;;;;13.00;4.10;;;17.70;73.90;;;16.73;65.30;97835.69;4972265;28;20480;-70
2022/06/07 05:13:47;;;;;;;3.70;3.40;;;17.50;74.30;;;16.94;64.63;97842.13;4977976;28;20467;-70
2022/06/07 05:16:15;;;;;;;4.97;3.67;;;17.70;74.10;;;17.15;64.86;97836.84;4982685;28;20454;-69
2022/06/07 05:18:43;;;;;;;3.60;3.30;;;17.90;74.80;;;17.25;62.61;97839.66;4981717;28;20476;-69
2022/06/07 05:21:13;;;;;;;3.43;3.17;;;18.00;73.10;;;17.24;62.38;97839.91;4991906;28;20486;-69
2022/06/07 05:23:40;;;;;;;3.87;2.97;;;18.10;72.40;;;17.49;61.79;97844.69;4983100;28;20539;-70
2022/06/07 05:26:13;;;;;;;3.73;3.03;;;18.20;72.20;;;17.70;61.83;97848.34;4981621;28;20459;-71
2022/06/07 05:28:43;;;;;;;3.63;3.27;;;18.40;72.40;;;17.89;61.59;97853.31;4976685;28;20475;-70
2022/06/07 05:31:10;;;;;;;3.20;2.90;;;18.60;72.20;;;17.99;60.51;97847.09;4981520;28;20451;-72
2022/06/07 05:33:39;;;;;;;3.57;3.27;;;18.80;71.40;;;18.02;61.29;97856.66;4976372;28;20517;-71
2022/06/07 05:36:08;;;;;;;4.00;3.33;;;18.90;72.00;;;18.01;60.75;97861.31;4974189;28;20463;-70
2022/06/07 05:38:35;;;;;;;3.53;3.23;;;18.90;71.50;;;18.07;60.91;97860.25;4980777;28;20941;-70
2022/06/07 05:41:04;;;;;;;4.57;4.00;;;18.90;71.40;;;17.99;60.58;97867.03;4985783;28;20471;-71
2022/06/07 05:43:31;;;;;;;3.43;3.13;;;18.80;70.70;;;17.95;60.02;97867.84;5013498;28;20853;-70
2022/06/07 05:46:00;;;;;;;3.20;3.00;;;18.70;70.00;;;17.88;60.60;97864.53;4996808;28;20541;-70
2022/06/07 05:48:28;;;;;;;3.73;3.40;;;18.70;70.70;;;17.79;61.01;97859.56;4983086;28;20951;-70
2022/06/07 05:50:57;;;;;;;4.40;3.60;;;18.70;70.60;;;17.77;61.78;97861.75;4986483;28;20460;-70
2022/06/07 05:53:25;;;;;;;4.60;2.80;;;18.60;71.20;;;17.86;60.28;97866.72;4985788;28;20755;-69
2022/06/07 05:55:52;;;;;;;2.63;2.43;;;18.60;70.30;;;17.75;58.91;97857.66;4975386;28;20475;-71
2022/06/07 05:58:19;;;;;;;3.20;2.87;;;18.60;69.00;;;17.84;60.23;97861.50;4990286;28;20470;-70
2022/06/07 06:00:47;;;;;;;5.27;3.17;;;18.60;69.80;;;17.89;59.46;97864.25;4984438;28;20466;-70
2022/06/07 06:03:15;;;;;;;4.63;2.40;;;18.70;69.00;;;17.86;58.33;97864.00;4985286;28;20998;-69
2022/06/07 06:05:46;;;;;;;3.20;2.60;;;18.70;68.00;;;18.11;58.98;97864.09;4991827;28;20455;-70
2022/06/07 06:11:09;;;;;;;3.03;2.73;;;19.00;67.40;;;17.97;58.09;97865.69;4983106;28;20466;-71
2022/06/07 06:13:36;;;;;;;2.77;2.00;;;18.90;67.50;;;18.22;56.56;97864.13;5018640;28;20451;-70
2022/06/07 06:16:07;;;;;;;2.23;1.97;;;19.00;66.60;;;18.31;56.83;97858.97;4979922;28;20474;-70
2022/06/07 06:18:35;;;;;;;2.93;2.20;;;19.10;66.80;;;18.15;57.58;97866.31;5022171;28;20462;-71
2022/06/07 06:21:02;;;;;;;3.50;2.20;;;19.10;66.80;;;18.41;56.73;97870.72;4982789;28;20954;-71
2022/06/07 06:23:31;;;;;;;1.83;1.73;;;19.20;66.80;;;18.11;57.19;97875.03;4971846;28;20482;-71
2022/06/07 06:25:58;;;;;;;4.13;2.13;;;19.10;66.20;;;17.76;57.81;97883.91;4974802;28;21083;-76
2022/06/07 06:28:26;;;;;;;4.27;2.30;;;18.80;66.50;;;17.61;58.30;97881.91;4987917;28;20482;-77
2022/06/07 06:30:55;;;;;;;3.13;2.10;;;18.60;66.80;;;17.79;58.10;97875.97;4984313;28;20461;-74
2022/06/07 06:33:22;;;;;;;5.13;2.30;;;18.60;66.90;;;17.82;57.55;97883.66;4997167;28;20193;-75
2022/06/07 06:35:51;;;;;;;2.70;2.50;;;18.70;66.60;;;17.55;57.50;97832.72;4997686;28;20874;-75
2022/06/07 06:38:19;;;;;;;1.90;1.60;;;18.70;66.40;;;17.95;57.78;97874.13;4973627;28;20478;-73
2022/06/07 06:40:48;;;;;;;2.77;1.83;;;18.80;66.60;;;17.86;57.71;97885.84;4973486;28;20492;-74
2022/06/07 06:43:18;;;;;;;2.07;1.60;;;18.70;66.30;;;17.80;57.23;97888.53;4978626;28;20475;-71
2022/06/07 06:45:46;;;;;;;3.20;1.50;;;18.70;65.90;;;17.55;57.86;97875.56;4984502;28;20464;-77
2022/06/07 06:48:14;;;;;;;4.00;1.50;;;18.50;66.00;;;17.57;58.13;97887.06;4963744;28;20461;-74
2022/06/07 06:50:42;;;;;;;2.03;1.73;;;18.50;66.40;;;17.67;57.83;97875.38;4980600;28;20470;-76
2022/06/07 06:53:09;;;;;;;1.90;1.70;;;18.60;66.40;;;17.75;57.71;97896.72;4977873;28;20470;-80
2022/06/07 06:55:43;;;;;;;2.20;1.57;;;18.60;66.10;;;17.86;57.52;97891.31;4977701;28;20471;-80
2022/06/07 06:58:12;;;;;;;2.67;1.87;;;18.70;66.30;;;17.66;57.68;97888.22;4980967;28;20539;-80
2022/06/07 07:00:39;;;;;;;1.97;1.77;;;18.60;65.90;;;17.75;56.61;97844.00;4982661;28;20455;-80
2022/06/07 07:03:07;;;;;;;2.00;1.60;;;18.70;65.90;;;18.26;56.24;97885.22;4986219;28;20473;-80
2022/06/07 07:05:35;;;;;;;2.43;1.93;;;19.00;65.80;;;18.38;56.02;97843.94;4985385;28;20849;-81
2022/06/07 07:08:02;;;;;;;3.77;2.27;;;19.30;66.00;;;18.83;54.71;97882.56;4980076;28;20448;-79
2022/06/07 07:10:30;;;;;;;2.73;1.53;;;19.60;64.80;;;18.79;54.76;97878.72;4991676;28;20543;-77
2022/06/07 07:12:57;;;;;;;1.60;1.50;;;19.50;64.30;;;18.89;53.95;97875.19;4987497;28;20521;-80
2022/06/07 07:15:26;;;;;;;2.50;1.67;;;19.80;63.90;;;18.94;54.10;97880.66;5004922;28;20456;-79
2022/06/07 07:17:54;;;;;;;2.30;1.50;;;19.80;63.90;;;18.93;52.98;97881.75;4990931;28;20448;-79
2022/06/07 07:20:21;;;;;;;1.70;1.60;;;19.90;62.80;;;19.27;53.03;97882.31;4990773;28;20444;-72
2022/06/07 07:22:48;;;;;;;1.50;1.40;;;20.00;63.10;;;19.30;53.07;97879.00;4986418;28;20484;-74
2022/06/07 07:25:16;;;;;;;2.13;1.37;;;20.10;63.10;;;19.65;51.99;97877.31;4984151;28;20489;-73
2022/06/07 07:27:44;;;;;;;3.10;1.50;;;20.40;62.70;;;19.51;53.16;97877.88;5008671;28;21021;-78
2022/06/07 07:30:13;;;;;;;2.03;1.40;;;20.40;62.90;;;19.17;52.07;97837.41;4994283;28;20466;-72
2022/06/07 07:32:42;;;;;;;1.40;1.30;;;20.30;61.90;;;19.37;52.96;97885.84;4980507;28;20457;-71
2022/06/07 07:35:10;;;;;;;7.60;2.00;;;20.30;62.50;;;19.18;53.58;97874.63;4979395;28;20458;-72
2022/06/07 07:37:37;;;;;;;2.93;1.53;;;20.10;62.70;;;19.48;52.19;97875.69;4979284;28;20808;-70
2022/06/07 07:40:05;;;;;;;2.83;1.73;;;20.30;62.00;;;19.77;52.19;97872.31;4986609;28;20527;-72
2022/06/07 07:42:32;;;;;;;3.30;1.60;;;20.50;62.50;;;20.00;51.77;97863.75;5014927;28;20452;-73
2022/06/07 07:45:00;;;;;;;2.77;1.50;;;20.80;62.20;;;20.59;50.01;97875.78;4982712;28;20470;-71
2022/06/07 07:47:27;;;;;;;5.23;1.63;;;21.20;61.30;;;20.19;50.38;97872.19;4980707;28;20477;-73
2022/06/07 07:49:55;;;;;;;1.73;1.30;;;21.20;60.10;;;20.27;48.86;97874.34;4985409;28;20458;-72
2022/06/07 07:52:23;;;;;;;2.47;2.20;;;21.20;59.20;;;20.13;49.83;97874.13;5003391;28;20461;-72
2022/06/07 07:54:51;;;;;;;1.83;1.10;;;21.10;59.80;;;19.74;50.36;97872.88;4974252;28;20510;-73
2022/06/07 07:57:18;;;;;;;4.37;1.50;;;20.90;59.80;;;19.57;50.09;97867.75;4975686;28;20463;-72
2022/06/07 07:59:46;;;;;;;1.20;1.10;;;20.60;59.30;;;19.12;51.11;97831.94;4973353;28;20835;-72
2022/06/07 08:02:20;;;;;;;1.27;1.13;;;20.30;59.60;;;19.34;50.58;97874.66;4985868;28;20489;-72
2022/06/07 08:04:47;;;;;;;2.30;1.40;;;20.20;59.40;;;19.34;51.29;97866.44;4975700;28;20496;-72
2022/06/07 08:07:16;;;;;;;1.50;1.40;;;20.10;59.80;;;19.15;50.76;97872.44;5003111;28;20885;-70
2022/06/07 08:09:44;;;;;;;3.23;1.37;;;20.00;59.30;;;19.20;51.48;97875.19;4981120;28;20852;-74
2022/06/07 08:12:11;;;;;;;1.47;1.23;;;20.00;59.90;;;18.67;52.18;97823.47;4971687;28;20472;-73
2022/06/07 08:14:39;;;;;;;1.83;1.73;;;19.80;60.00;;;19.36;52.18;97877.91;4983791;28;21030;-73
2022/06/07 08:17:06;;;;;;;2.30;1.53;;;20.10;60.60;;;19.31;51.47;97875.16;4974686;28;20451;-73
2022/06/07 08:19:33;;;;;;;1.80;1.30;;;20.10;59.80;;;20.06;49.50;97879.91;4978241;28;20454;-71
2022/06/07 08:22:01;;;;;;;2.10;1.30;;;20.60;59.80;;;19.95;49.70;97840.75;4979889;28;20470;-86
2022/06/07 08:24:30;;;;;;;2.30;1.17;;;20.80;59.50;;;20.31;49.00;97874.56;4991029;28;20476;-88
2022/06/07 08:26:57;;;;;;;1.47;1.03;;;21.10;59.00;;;20.12;49.20;97872.47;4976103;28;20452;-74
2022/06/07 08:29:24;;;;;;;1.77;1.50;;;21.00;58.70;;;19.68;49.66;97869.31;4977113;28;20460;-75
2022/06/07 08:31:51;;;;;;;1.80;1.40;;;20.70;58.40;;;20.08;50.10;97872.22;4977735;28;20528;-78
2022/06/07 08:39:51;;;;;;;3.10;1.40;;;22.00;58.30;;;21.91;45.78;97865.00;4982270;28;20469;-75
2022/06/07 08:42:25;;;;;;;3.90;2.00;;;22.50;58.00;;;22.20;45.20;97868.75;4971886;28;20476;-76
2022/06/07 08:44:57;;;;;;;1.90;1.10;;;22.90;57.40;;;22.05;45.13;97865.06;4983143;28;20483;-77
2022/06/07 08:47:32;;;;;;;4.07;1.50;;;22.80;56.70;;;21.61;46.15;97872.44;4976596;28;20473;-75
2022/06/07 08:50:06;;;;;;;3.50;1.20;;;22.60;57.30;;;21.33;46.19;97874.94;4980210;28;20460;-75
2022/06/07 08:52:36;;;;;;;2.27;2.00;;;22.10;56.60;;;21.38;45.77;97868.56;4987979;28;20516;-74
2022/06/07 08:55:17;;;;;;;1.10;1.07;;;22.30;56.60;;;21.45;46.12;97863.53;4973272;28;20558;-76
2022/06/07 08:57:56;;;;;;;3.90;1.60;;;22.20;57.00;;;21.26;46.72;97862.66;5010532;28;20473;-78
2022/06/07 09:00:27;;;;;;;1.37;1.20;;;22.30;56.70;;;21.33;46.73;97857.66;5005397;28;21001;-79
2022/06/07 09:03:26;;;;;;;1.50;1.40;;;22.30;57.00;;;21.10;46.33;97857.28;5002946;28;20467;-75
2022/06/07 09:05:55;;;;;;;1.60;1.47;;;22.20;56.20;;;21.17;46.78;97857.78;4975904;28;20471;-74
2022/06/07 09:08:23;;;;;;;4.13;1.93;;;22.20;56.70;;;21.20;46.49;97859.97;5016016;28;20448;-76
2022/06/07 09:13:38;;;;;;;2.60;1.20;;;22.00;56.10;;;20.47;47.29;97842.38;4983241;28;20502;-74
2022/06/07 09:16:06;;;;;;;2.20;1.20;;;21.50;56.20;;;20.27;47.72;97852.41;4986620;28;21002;-77
2022/06/07 09:18:34;;;;;;;2.20;1.20;;;21.20;56.30;;;20.36;47.38;97844.38;4989697;28;20833;-76
2022/06/07 09:21:08;;;;;;;1.50;1.40;;;21.20;56.60;;;20.54;47.06;97851.09;5008816;28;20451;-74
2022/06/07 09:23:44;;;;;;;5.30;1.23;;;21.40;56.20;;;20.99;47.75;97855.75;5012129;28;20570;-75
2022/06/07 09:26:27;;;;;;;1.40;1.07;;;21.70;57.20;;;20.93;45.82;97855.00;4978802;28;20468;-72
2022/06/07 09:29:09;;;;;;;4.60;1.13;;;21.70;55.60;;;20.63;46.13;97849.41;4981669;28;20456;-76
2022/06/07 09:31:41;;;;;;;1.40;0.90;;;21.60;55.40;;;21.21;44.72;97847.84;4983383;28;20458;-71
2022/06/07 09:34:17;;;;;;;2.40;1.03;;;21.90;55.20;;;21.27;44.16;97834.91;5016051;28;20537;-75
2022/06/07 09:36:53;;;;;;;2.03;1.20;;;22.10;54.60;;;21.73;44.03;97841.03;4978222;28;20460;-74
2022/06/07 09:39:27;;;;;;;1.33;1.07;;;22.40;55.00;;;21.80;42.86;97827.72;4983163;28;20842;-75
2022/06/07 09:42:03;;;;;;;2.90;1.53;;;22.60;53.70;;;22.02;42.96;97827.16;4978513;28;20493;-73
2022/06/07 09:44:33;;;;;;;3.70;1.00;;;22.80;53.90;;;21.59;43.36;97835.38;4981046;28;20516;-75
2022/06/07 09:47:03;;;;;;;2.20;1.00;;;22.40;53.90;;;21.16;44.66;97823.19;4980262;28;20541;-75
2022/06/07 09:49:37;;;;;;;0.80;0.80;;;22.20;54.30;;;21.26;43.74;97830.50;4985348;28;20503;-73
2022/06/07 09:52:14;;;;;;;1.37;1.20;;;22.20;54.20;;;20.89;43.88;97824.53;4981773;28;20513;-74
2022/06/07 09:54:45;;;;;;;1.50;1.30;;;21.90;53.40;;;21.37;43.51;97822.97;5010531;28;20466;-72
2022/06/07 09:57:34;;;;;;;1.47;1.00;;;22.10;53.70;;;21.38;43.41;97821.88;4981308;28;21960;-72
2022/06/07 10:00:18;;;;;;;2.30;1.63;;;22.10;53.20;;;21.73;43.14;97828.09;4982678;28;20469;-73
2022/06/07 10:03:18;;;;;;;4.10;1.37;;;22.40;53.50;;;21.59;42.92;97813.38;5018869;28;20462;-76
2022/06/07 10:06:02;;;;;;;1.27;0.90;;;22.50;53.20;;;21.69;42.20;97813.28;4995762;28;20484;-75
2022/06/07 10:08:50;;;;;;;2.20;1.30;;;22.60;53.00;;;22.29;42.21;97809.19;4988889;28;20457;-70
2022/06/07 10:11:26;;;;;;;1.20;1.10;;;22.80;53.70;;;22.33;41.93;97796.47;5017522;28;20466;-74
2022/06/07 10:14:23;;;;;;;2.17;1.87;;;23.10;53.00;;;22.92;41.43;97789.78;4992385;28;20524;-73
2022/06/07 10:17:05;;;;;;;2.10;1.77;;;23.40;53.30;;;23.01;41.67;97798.97;4981475;28;20969;-71
2022/06/07 10:19:44;;;;;;;2.90;1.63;;;23.70;53.40;;;22.64;42.24;97787.75;4980198;28;20974;-71
2022/06/07 10:22:40;;;;;;;3.57;1.30;;;23.70;53.50;;;22.51;42.37;97777.50;5011921;28;20458;-75
2022/06/07 10:25:16;;;;;;;1.50;1.40;;;23.50;53.30;;;22.15;41.59;97791.78;4983697;28;20483;-72
2022/06/07 10:27:54;;;;;;;1.40;1.30;;;23.10;52.30;;;22.35;41.70;97790.69;4997918;28;20459;-74
2022/06/07 10:30:30;;;;;;;1.27;1.17;;;23.10;52.90;;;22.53;41.01;97800.06;4985369;28;21867;-70
2022/06/07 10:33:48;;;;;;;1.00;1.00;;;23.20;52.40;;;22.52;40.97;97767.34;5002383;28;20467;-73
2022/06/07 10:36:31;;;;;;;1.07;0.97;;;23.30;52.60;;;22.65;40.72;97780.31;4905817;28;20463;-70
2022/06/07 10:39:41;;;;;;;1.27;0.90;;;23.40;52.20;;;22.34;41.58;97786.28;4987485;28;20460;-71
2022/06/07 10:42:23;;;;;;;1.20;1.10;;;23.10;52.10;;;21.99;42.10;97796.69;4944075;28;20701;-70
2022/06/07 10:45:01;;;;;;;1.57;1.20;;;22.80;52.10;;;21.85;42.49;97793.84;4959312;28;20476;-74
2022/06/07 10:47:37;;;;;;;2.23;1.10;;;22.50;52.50;;;22.15;42.48;97792.63;4966018;28;20437;-71
2022/06/07 10:50:16;;;;;;;6.93;1.20;;;22.70;52.90;;;22.80;41.89;97783.94;4979107;28;21283;-73